Time;durP1;ratioP1;P1;durP2;ratioP2;P2;SDS_P1;SDS_P2;PMS_P1;PMS_P2;Temp;Humidity;BMP_temperature;BMP_pressure;BME280_temperature;BME280_humidity;BME280_pressure;Samples;Min_cycle;Max_cycle;Signal;HPM_P1;HPM_P2
2022/04/06 00:00:54;;;;;;;6.53;5.83;;;;;22.10;99365.00;;;;2071979;28;20218;-46
2022/04/06 00:01:54;;;;;;;6.77;5.20;;;;;22.10;99362.00;;;;2077724;28;20278;-45
2022/04/06 00:02:54;;;;;;;7.73;6.03;;;;;22.10;99368.00;;;;2073535;28;20225;-46
2022/04/06 00:03:55;;;;;;;6.57;5.30;;;;;22.10;99375.00;;;;2079198;28;20213;-46
2022/04/06 00:04:55;;;;;;;7.50;5.57;;;;;22.00;99368.00;;;;2075436;28;20225;-46
2022/04/06 00:05:55;;;;;;;6.37;5.20;;;;;22.00;99369.00;;;;2078150;28;20323;-45
2022/04/06 00:06:55;;;;;;;8.10;6.03;;;;;22.00;99366.00;;;;2075948;28;20261;-46
2022/04/06 00:07:56;;;;;;;5.83;5.20;;;;;22.00;99369.00;;;;2073818;28;20315;-46
2022/04/06 00:08:56;;;;;;;7.83;5.80;;;;;22.00;99367.00;;;;2079207;28;20224;-46
2022/04/06 00:09:57;;;;;;;8.83;5.60;;;;;22.00;99357.00;;;;2079040;28;20221;-46
2022/04/06 00:10:57;;;;;;;6.20;4.90;;;;;22.00;99350.00;;;;2078632;28;20241;-45
2022/04/06 00:11:57;;;;;;;13.77;6.57;;;;;22.00;99347.00;;;;2072724;28;20222;-46
2022/04/06 00:12:59;;;;;;;6.83;5.37;;;;;22.00;99359.00;;;;2071039;28;20679;-46
2022/04/06 00:13:59;;;;;;;7.13;4.75;;;;;22.00;99375.00;;;;2070639;28;20786;-50
2022/04/06 00:15:00;;;;;;;6.80;4.77;;;;;22.00;99354.00;;;;2076191;28;20214;-47
2022/04/06 00:16:01;;;;;;;7.17;5.43;;;;;22.00;99351.00;;;;2071948;28;20313;-47
2022/04/06 00:17:05;;;;;;;6.15;4.97;;;;;22.00;99345.00;;;;2069379;28;20711;-46
2022/04/06 00:18:05;;;;;;;7.38;5.20;;;;;22.00;99342.00;;;;2072245;28;20221;-47
2022/04/06 00:19:05;;;;;;;6.43;4.83;;;;;22.00;99341.00;;;;2079118;28;20209;-46
2022/04/06 00:20:07;;;;;;;6.80;4.93;;;;;21.90;99353.00;;;;2079086;28;20233;-46
2022/04/06 00:21:07;;;;;;;7.20;5.15;;;;;21.90;99346.00;;;;2074314;28;20878;-46
2022/04/06 00:22:08;;;;;;;7.27;4.90;;;;;21.70;99349.00;;;;2073685;28;20260;-46
2022/04/06 00:23:08;;;;;;;5.60;4.90;;;;;22.00;99338.00;;;;2070316;28;20225;-46
2022/04/06 00:24:09;;;;;;;9.10;5.07;;;;;21.90;99344.00;;;;2069982;28;20734;-45
2022/04/06 00:25:09;;;;;;;8.00;5.20;;;;;21.90;99346.00;;;;2074487;28;20460;-46
2022/04/06 00:26:09;;;;;;;7.70;5.47;;;;;21.90;99347.00;;;;2077611;28;20270;-45
2022/04/06 00:27:10;;;;;;;6.83;5.00;;;;;21.90;99357.00;;;;2078128;28;20225;-46
2022/04/06 00:28:10;;;;;;;6.27;4.53;;;;;21.90;99337.00;;;;2078856;28;20694;-46
2022/04/06 00:29:10;;;;;;;6.53;4.60;;;;;21.90;99339.00;;;;2071758;28;20228;-46
2022/04/06 00:30:11;;;;;;;5.90;4.63;;;;;21.90;99339.00;;;;2078827;28;20225;-46
2022/04/06 00:31:12;;;;;;;5.50;4.60;;;;;21.90;99342.00;;;;2078858;28;20247;-46
2022/04/06 00:32:13;;;;;;;6.93;4.38;;;;;21.90;99340.00;;;;2079022;28;20229;-46
2022/04/06 00:33:13;;;;;;;6.30;4.50;;;;;21.90;99346.00;;;;2078129;28;20431;-46
2022/04/06 00:34:14;;;;;;;5.20;4.40;;;;;21.90;99340.00;;;;2069159;28;20217;-46
2022/04/06 00:35:29;;;;;;;6.97;4.60;;;;;21.90;99342.00;;;;2070723;28;20226;-46
2022/04/06 00:36:29;;;;;;;7.65;5.10;;;;;21.90;99342.00;;;;2070860;28;20300;-46
2022/04/06 00:37:30;;;;;;;6.43;5.10;;;;;21.90;99330.00;;;;2070588;28;20218;-46
2022/04/06 00:38:30;;;;;;;7.63;4.60;;;;;21.90;99342.00;;;;2073342;28;20267;-46
2022/04/06 00:39:31;;;;;;;7.30;5.00;;;;;21.90;99337.00;;;;2078587;28;20229;-46
2022/04/06 00:40:32;;;;;;;6.07;4.43;;;;;21.90;99324.00;;;;2078840;28;20304;-46
2022/04/06 00:41:33;;;;;;;8.02;4.78;;;;;21.90;99340.00;;;;2076475;28;20300;-46
2022/04/06 00:42:33;;;;;;;6.63;4.53;;;;;21.90;99346.00;;;;2069879;28;20589;-46
2022/04/06 00:43:33;;;;;;;6.10;4.23;;;;;21.80;99333.00;;;;2077428;28;20213;-48
2022/04/06 00:44:34;;;;;;;7.63;4.50;;;;;21.80;99335.00;;;;2078463;28;20635;-47
2022/04/06 00:45:35;;;;;;;7.50;5.00;;;;;21.90;99332.00;;;;2078282;28;20294;-47
2022/04/06 00:46:35;;;;;;;8.17;4.93;;;;;21.90;99342.00;;;;2079103;28;20236;-47
2022/04/06 00:47:35;;;;;;;7.10;4.90;;;;;21.80;99336.00;;;;2079187;28;20209;-48
2022/04/06 00:48:36;;;;;;;7.43;4.50;;;;;21.80;99335.00;;;;2079078;28;20212;-47
2022/04/06 00:49:36;;;;;;;6.13;4.60;;;;;21.80;99331.00;;;;2078913;28;20225;-47
2022/04/06 00:50:37;;;;;;;6.60;3.93;;;;;21.80;99336.00;;;;2073037;28;20214;-47
2022/04/06 00:51:39;;;;;;;6.80;4.90;;;;;21.80;99331.00;;;;2070940;28;20237;-46
2022/04/06 00:52:39;;;;;;;7.30;4.40;;;;;21.80;99327.00;;;;2070088;28;20217;-47
2022/04/06 00:53:40;;;;;;;5.87;4.47;;;;;21.80;99331.00;;;;2062076;28;20214;-47
2022/04/06 00:54:40;;;;;;;6.23;4.00;;;;;21.80;99333.00;;;;2075957;28;20287;-47
2022/04/06 00:55:40;;;;;;;6.17;4.60;;;;;21.80;99330.00;;;;2078335;28;20233;-46
2022/04/06 00:56:42;;;;;;;7.00;4.60;;;;;21.80;99333.00;;;;2078237;28;20219;-46
2022/04/06 00:57:42;;;;;;;4.72;4.13;;;;;21.80;99319.00;;;;2077048;28;20220;-46
2022/04/06 00:58:42;;;;;;;5.47;4.57;;;;;21.80;99326.00;;;;2070242;28;20756;-46
2022/04/06 00:59:43;;;;;;;7.37;4.90;;;;;21.80;99326.00;;;;2069759;28;20233;-46
2022/04/06 01:00:43;;;;;;;4.97;4.10;;;;;21.80;99324.00;;;;2069837;28;20229;-46
2022/04/06 01:01:49;;;;;;;5.50;4.00;;;;;21.80;99324.00;;;;2070082;28;20244;-46
2022/04/06 01:02:49;;;;;;;6.15;4.47;;;;;21.80;99331.00;;;;2078119;28;20601;-46
2022/04/06 01:03:49;;;;;;;6.13;4.57;;;;;21.80;99326.00;;;;2078070;28;20221;-46
2022/04/06 01:04:50;;;;;;;5.20;4.17;;;;;21.80;99323.00;;;;2078816;28;20705;-46
2022/04/06 01:05:50;;;;;;;7.37;4.60;;;;;21.80;99327.00;;;;2077988;28;20220;-46
2022/04/06 01:06:51;;;;;;;5.27;3.77;;;;;21.80;99319.00;;;;2072539;28;20213;-46
2022/04/06 01:07:52;;;;;;;6.93;4.20;;;;;21.70;99328.00;;;;2070447;28;20317;-46
2022/04/06 01:08:53;;;;;;;7.33;4.40;;;;;21.70;99326.00;;;;2074161;28;20265;-46
2022/04/06 01:09:53;;;;;;;6.30;4.60;;;;;21.70;99321.00;;;;2075143;28;20459;-46
2022/04/06 01:10:53;;;;;;;6.90;4.87;;;;;21.70;99312.00;;;;2075660;28;20296;-46
2022/04/06 01:11:54;;;;;;;5.40;3.57;;;;;21.70;99320.00;;;;2070505;28;20210;-45
2022/04/06 01:12:54;;;;;;;6.90;4.40;;;;;21.70;99323.00;;;;2065942;28;20210;-45
2022/04/06 01:13:55;;;;;;;4.60;4.10;;;;;21.60;99319.00;;;;2078299;28;20228;-45
2022/04/06 01:14:55;;;;;;;5.93;4.07;;;;;21.70;99319.00;;;;2078484;28;20205;-46
2022/04/06 01:15:55;;;;;;;5.10;3.77;;;;;21.70;99313.00;;;;2077598;28;20796;-45
2022/04/06 01:17:07;;;;;;;5.67;4.07;;;;;21.70;99314.00;;;;2078260;28;20236;-45
2022/04/06 01:18:08;;;;;;;6.50;4.95;;;;;21.70;99314.00;;;;2073184;28;20303;-46
2022/04/06 01:19:08;;;;;;;5.47;3.90;;;;;21.70;99308.00;;;;2074606;28;20314;-46
2022/04/06 01:20:10;;;;;;;7.10;4.10;;;;;21.70;99311.00;;;;2074159;28;20226;-46
2022/04/06 01:21:11;;;;;;;6.65;4.50;;;;;21.70;99315.00;;;;2076622;28;20874;-46
2022/04/06 01:22:13;;;;;;;6.68;4.07;;;;;21.70;99317.00;;;;2077946;28;20231;-45
2022/04/06 01:23:13;;;;;;;5.40;4.40;;;;;21.70;99315.00;;;;2074540;28;20993;-46
2022/04/06 01:24:14;;;;;;;9.37;4.33;;;;;21.70;99312.00;;;;2070397;28;20221;-46
2022/04/06 01:25:14;;;;;;;6.40;4.23;;;;;21.70;99314.00;;;;2075940;28;20221;-45
2022/04/06 01:26:14;;;;;;;4.53;4.07;;;;;21.70;99313.00;;;;2078088;28;20213;-46
2022/04/06 01:27:15;;;;;;;6.33;4.00;;;;;21.70;99312.00;;;;2078509;28;20209;-46
2022/04/06 01:28:15;;;;;;;6.20;4.13;;;;;21.70;99288.00;;;;2073939;28;20216;-46
2022/04/06 01:29:15;;;;;;;6.10;4.07;;;;;21.70;99309.00;;;;2070546;28;20550;-45
2022/04/06 01:30:16;;;;;;;4.27;3.87;;;;;21.70;99306.00;;;;2070302;28;20721;-46
2022/04/06 01:31:16;;;;;;;4.10;3.70;;;;;21.70;99306.00;;;;2070526;28;20581;-46
2022/04/06 01:32:19;;;;;;;4.00;3.60;;;;;21.60;99308.00;;;;2071057;28;20578;-45
2022/04/06 01:33:19;;;;;;;5.05;4.10;;;;;21.70;99309.00;;;;2078078;28;20216;-45
2022/04/06 01:34:20;;;;;;;6.33;4.47;;;;;21.60;99309.00;;;;2078581;28;20213;-45
2022/04/06 01:35:20;;;;;;;6.50;3.80;;;;;21.60;99299.00;;;;2077528;28;20268;-46
2022/04/06 01:36:20;;;;;;;7.10;4.27;;;;;21.60;99300.00;;;;2073717;28;20595;-46
2022/04/06 01:37:21;;;;;;;6.23;4.00;;;;;21.60;99312.00;;;;2069596;28;20637;-46
2022/04/06 01:38:21;;;;;;;5.17;3.93;;;;;21.60;99295.00;;;;2069544;28;20638;-46
2022/04/06 01:39:22;;;;;;;4.60;3.43;;;;;21.60;99311.00;;;;2073462;28;20740;-45
2022/04/06 01:40:25;;;;;;;5.13;4.23;;;;;21.70;99299.00;;;;2073940;28;20708;-46
2022/04/06 01:41:32;;;;;;;6.22;3.80;;;;;21.60;99311.00;;;;2077451;28;20225;-46
2022/04/06 01:42:33;;;;;;;5.15;3.72;;;;;21.60;99315.00;;;;2077298;28;20213;-45
2022/04/06 01:43:33;;;;;;;5.43;3.70;;;;;21.60;99299.00;;;;2077424;28;20229;-45
2022/04/06 01:44:33;;;;;;;5.00;3.90;;;;;21.60;99307.00;;;;2068931;28;20210;-46
2022/04/06 01:45:34;;;;;;;4.67;3.70;;;;;21.60;99296.00;;;;2069243;28;20214;-46
2022/04/06 01:46:36;;;;;;;4.67;3.47;;;;;21.60;99306.00;;;;2073412;28;20224;-46
2022/04/06 01:47:37;;;;;;;3.97;3.22;;;;;21.60;99310.00;;;;2070475;28;20214;-46
2022/04/06 01:52:12;;;;;;;4.93;3.60;;;;;21.60;99299.00;;;;2078416;28;20237;-46
2022/04/06 01:52:35;;;;;;;6.18;3.65;;;;;21.50;99289.00;;;;2071251;28;20214;-46
2022/04/06 01:53:35;;;;;;;3.60;3.20;;;;;21.60;99281.00;;;;2078518;28;20292;-46
2022/04/06 01:54:35;;;;;;;6.13;3.20;;;;;21.60;99299.00;;;;2075748;28;20221;-46
2022/04/06 01:55:36;;;;;;;6.17;3.77;;;;;21.50;99293.00;;;;2069647;28;20222;-45
2022/04/06 01:56:36;;;;;;;6.93;3.90;;;;;21.60;99295.00;;;;2070295;28;20210;-45
2022/04/06 01:57:36;;;;;;;6.83;3.70;;;;;21.60;99296.00;;;;2069837;28;20222;-45
2022/04/06 01:58:37;;;;;;;4.53;3.20;;;;;21.60;99297.00;;;;2069661;28;20214;-45
2022/04/06 01:59:37;;;;;;;4.73;3.77;;;;;21.60;99291.00;;;;2074134;28;20603;-46
2022/04/06 02:00:38;;;;;;;5.53;3.40;;;;;21.60;99295.00;;;;2078304;28;21225;-46
2022/04/06 02:01:38;;;;;;;5.97;3.57;;;;;21.50;99285.00;;;;2077349;28;20224;-46
2022/04/06 02:02:38;;;;;;;4.70;3.57;;;;;21.50;99295.00;;;;2076265;28;20240;-46
2022/04/06 02:03:39;;;;;;;4.40;3.23;;;;;21.50;99288.00;;;;2074893;28;20247;-46
2022/04/06 02:04:39;;;;;;;5.93;3.60;;;;;21.60;99285.00;;;;2073581;28;20713;-45
2022/04/06 02:05:40;;;;;;;7.23;4.27;;;;;21.60;99298.00;;;;2073597;28;20222;-46
2022/04/06 02:06:41;;;;;;;4.93;3.63;;;;;21.50;99290.00;;;;2078410;28;20448;-46
2022/04/06 02:07:42;;;;;;;4.53;3.40;;;;;21.50;99290.00;;;;2075543;28;20694;-45
2022/04/06 02:08:42;;;;;;;7.78;4.68;;;;;21.50;99287.00;;;;2070374;28;20267;-45
2022/04/06 02:09:43;;;;;;;4.37;3.30;;;;;21.50;99288.00;;;;2075242;28;20221;-45
2022/04/06 02:10:43;;;;;;;4.80;3.50;;;;;21.50;99281.00;;;;2076418;28;20264;-45
2022/04/06 02:11:44;;;;;;;4.43;3.20;;;;;21.50;99287.00;;;;2076654;28;20756;-45
2022/04/06 02:12:44;;;;;;;5.83;3.33;;;;;21.50;99278.00;;;;2078269;28;20698;-46
2022/04/06 02:13:45;;;;;;;4.80;3.33;;;;;21.50;99277.00;;;;2077842;28;20217;-46
2022/04/06 02:14:45;;;;;;;5.07;3.50;;;;;21.50;99285.00;;;;2077603;28;20220;-46
2022/04/06 02:15:46;;;;;;;6.10;3.23;;;;;21.50;99272.00;;;;2071343;28;20294;-46
2022/04/06 02:16:46;;;;;;;5.07;3.40;;;;;21.50;99273.00;;;;2068920;28;20568;-49
2022/04/06 02:17:46;;;;;;;5.10;3.40;;;;;21.50;99263.00;;;;2061518;28;20446;-48
2022/04/06 02:18:47;;;;;;;6.53;3.50;;;;;21.50;99273.00;;;;2061642;28;20210;-46
2022/04/06 02:19:47;;;;;;;3.57;2.70;;;;;21.50;99266.00;;;;2061444;28;20219;-46
2022/04/06 02:20:47;;;;;;;4.80;3.23;;;;;21.50;99275.00;;;;2069581;28;20257;-46
2022/04/06 02:21:48;;;;;;;4.60;3.17;;;;;21.50;99283.00;;;;2078107;28;20280;-46
2022/04/06 02:22:49;;;;;;;3.23;2.80;;;;;21.50;99284.00;;;;2078303;28;20206;-45
2022/04/06 02:23:49;;;;;;;3.83;3.40;;;;;21.50;99276.00;;;;2075878;28;20212;-46
2022/04/06 02:24:49;;;;;;;5.33;2.93;;;;;21.40;99285.00;;;;2073529;28;20340;-45
2022/04/06 02:25:50;;;;;;;5.23;3.30;;;;;21.40;99271.00;;;;2076192;28;20206;-46
2022/04/06 02:26:50;;;;;;;4.70;3.13;;;;;21.50;99283.00;;;;2077357;28;20301;-45
2022/04/06 02:27:52;;;;;;;4.50;3.17;;;;;21.50;99272.00;;;;2072411;28;20206;-45
2022/04/06 02:28:54;;;;;;;4.57;2.70;;;;;21.50;99272.00;;;;2073315;28;20320;-46
2022/04/06 02:29:54;;;;;;;5.15;3.40;;;;;21.50;99280.00;;;;2077680;28;20214;-46
2022/04/06 02:30:54;;;;;;;3.27;2.97;;;;;21.50;99274.00;;;;2078466;28;20687;-46
2022/04/06 02:31:55;;;;;;;4.00;3.20;;;;;21.50;99279.00;;;;2072632;28;20559;-45
2022/04/06 02:32:55;;;;;;;4.60;3.27;;;;;21.40;99267.00;;;;2076364;28;20248;-46
2022/04/06 02:33:55;;;;;;;3.67;3.13;;;;;21.40;99277.00;;;;2078363;28;20248;-46
2022/04/06 02:34:56;;;;;;;4.50;2.67;;;;;21.40;99268.00;;;;2074420;28;20582;-45
2022/04/06 02:35:56;;;;;;;4.97;3.70;;;;;21.40;99284.00;;;;2071757;28;21001;-46
2022/04/06 02:36:56;;;;;;;6.50;2.90;;;;;21.40;99268.00;;;;2076799;28;21040;-46
2022/04/06 02:37:57;;;;;;;5.00;2.90;;;;;21.40;99269.00;;;;2077622;28;20210;-45
2022/04/06 02:38:57;;;;;;;6.73;3.97;;;;;21.40;99264.00;;;;2077465;28;20198;-46
2022/04/06 02:39:57;;;;;;;5.20;3.00;;;;;21.40;99277.00;;;;2074756;28;20229;-46
2022/04/06 02:40:58;;;;;;;4.83;3.00;;;;;21.40;99267.00;;;;2072115;28;20207;-45
2022/04/06 02:41:58;;;;;;;5.17;3.00;;;;;21.40;99267.00;;;;2070259;28;20252;-45
2022/04/06 02:42:58;;;;;;;5.73;3.70;;;;;21.40;99272.00;;;;2077599;28;20229;-46
2022/04/06 02:43:59;;;;;;;6.10;3.10;;;;;21.40;99268.00;;;;2074829;28;20241;-45
2022/04/06 02:44:59;;;;;;;4.10;2.93;;;;;21.40;99269.00;;;;2078280;28;20206;-46
2022/04/06 02:45:59;;;;;;;3.30;2.80;;;;;21.40;99194.00;;;;2070828;28;20219;-46
2022/04/06 02:47:00;;;;;;;3.90;2.90;;;;;21.40;99261.00;;;;2070259;28;20229;-46
2022/04/06 02:48:00;;;;;;;4.83;2.90;;;;;21.40;99258.00;;;;2070065;28;20279;-46
2022/04/06 02:49:00;;;;;;;4.47;2.67;;;;;21.40;99257.00;;;;2075961;28;20224;-46
2022/04/06 02:50:01;;;;;;;5.17;3.00;;;;;21.40;99257.00;;;;2075089;28;20706;-45
2022/04/06 02:51:01;;;;;;;3.50;2.70;;;;;21.40;99257.00;;;;2070175;28;20334;-45
2022/04/06 02:52:02;;;;;;;5.87;3.50;;;;;21.40;99246.00;;;;2071313;28;20210;-45
2022/04/06 02:53:02;;;;;;;5.27;3.07;;;;;21.40;99260.00;;;;2078325;28;20213;-46
2022/04/06 02:54:02;;;;;;;3.93;2.87;;;;;21.40;99257.00;;;;2077522;28;20236;-46
2022/04/06 02:55:03;;;;;;;4.53;2.80;;;;;21.40;99258.00;;;;2061849;28;20222;-46
2022/04/06 02:56:04;;;;;;;5.30;3.23;;;;;21.40;99265.00;;;;2068626;28;20222;-46
2022/04/06 02:57:06;;;;;;;3.93;2.80;;;;;21.40;99250.00;;;;2070159;28;21035;-46
2022/04/06 02:58:06;;;;;;;4.05;3.13;;;;;21.40;99250.00;;;;2071796;28;20207;-46
2022/04/06 02:59:06;;;;;;;4.47;3.03;;;;;21.40;99256.00;;;;2071664;28;20218;-46
2022/04/06 03:00:07;;;;;;;4.27;2.80;;;;;21.40;99252.00;;;;2071545;28;20225;-46
2022/04/06 03:01:08;;;;;;;5.90;3.00;;;;;21.40;99252.00;;;;2071512;28;20653;-46
2022/04/06 03:02:08;;;;;;;4.20;2.60;;;;;21.30;99254.00;;;;2071584;28;20260;-46
2022/04/06 03:03:08;;;;;;;6.10;3.63;;;;;21.30;99252.00;;;;2071534;28;20214;-46
2022/04/06 03:04:09;;;;;;;5.00;3.23;;;;;21.30;99264.00;;;;2070756;28;20228;-46
2022/04/06 03:05:09;;;;;;;4.27;2.97;;;;;21.30;99243.00;;;;2070558;28;20221;-46
2022/04/06 03:06:09;;;;;;;3.60;2.50;;;;;21.30;99247.00;;;;2070826;28;20214;-46
2022/04/06 03:07:10;;;;;;;3.77;2.50;;;;;21.30;99255.00;;;;2071083;28;20217;-45
2022/04/06 03:08:10;;;;;;;3.80;2.57;;;;;21.30;99249.00;;;;2070739;28;20218;-46
2022/04/06 03:09:11;;;;;;;5.10;2.63;;;;;21.30;99255.00;;;;2071077;28;20214;-46
2022/04/06 03:10:11;;;;;;;3.50;2.50;;;;;21.30;99240.00;;;;2070072;28;20221;-46
2022/04/06 03:11:11;;;;;;;4.37;2.90;;;;;21.30;99266.00;;;;2070518;28;20214;-45
2022/04/06 03:12:12;;;;;;;3.73;2.60;;;;;21.30;99252.00;;;;2075165;28;20220;-46
2022/04/06 03:13:12;;;;;;;3.90;2.40;;;;;21.30;99245.00;;;;2069500;28;20737;-45
2022/04/06 03:14:12;;;;;;;5.40;2.63;;;;;21.30;99256.00;;;;2070303;28;20721;-46
2022/04/06 03:15:13;;;;;;;4.90;2.80;;;;;21.30;99252.00;;;;2070291;28;20777;-45
2022/04/06 03:16:13;;;;;;;4.00;2.40;;;;;21.30;99256.00;;;;2070050;28;20582;-46
2022/04/06 03:17:16;;;;;;;4.33;2.73;;;;;21.30;99249.00;;;;2070408;28;20620;-46
2022/04/06 03:18:16;;;;;;;4.57;2.20;;;;;21.30;99253.00;;;;2070813;28;20221;-46
2022/04/06 03:19:16;;;;;;;3.80;2.70;;;;;21.30;99247.00;;;;2071690;28;20241;-46
2022/04/06 03:20:17;;;;;;;4.50;2.20;;;;;21.30;99253.00;;;;2071371;28;20222;-46
2022/04/06 03:21:17;;;;;;;6.10;2.70;;;;;21.30;99250.00;;;;2071342;28;20322;-46
2022/04/06 03:22:18;;;;;;;4.50;2.97;;;;;21.30;99248.00;;;;2071569;28;20292;-46
2022/04/06 03:23:18;;;;;;;3.73;2.30;;;;;21.30;99246.00;;;;2071473;28;20329;-46
2022/04/06 03:24:18;;;;;;;4.20;2.60;;;;;21.30;99251.00;;;;2071431;28;20225;-46
2022/04/06 03:25:20;;;;;;;5.23;2.50;;;;;21.30;99248.00;;;;2070473;28;20618;-46
2022/04/06 03:26:20;;;;;;;3.30;2.30;;;;;21.30;99256.00;;;;2070996;28;20604;-46
2022/04/06 03:27:20;;;;;;;3.73;2.33;;;;;21.30;99246.00;;;;2071243;28;20329;-46
2022/04/06 03:28:21;;;;;;;6.37;2.43;;;;;21.30;99248.00;;;;2071218;28;20219;-46
2022/04/06 03:29:21;;;;;;;3.97;2.70;;;;;21.30;99251.00;;;;2070956;28;20233;-45
2022/04/06 03:30:21;;;;;;;4.40;2.80;;;;;21.20;99253.00;;;;2071460;28;20285;-46
2022/04/06 03:31:22;;;;;;;3.33;2.30;;;;;21.30;99250.00;;;;2073966;28;20219;-45
2022/04/06 03:32:22;;;;;;;3.93;2.43;;;;;21.30;99247.00;;;;2079580;28;20577;-46
2022/04/06 03:33:22;;;;;;;4.00;2.50;;;;;21.30;99246.00;;;;2071686;28;20209;-46
2022/04/06 03:34:23;;;;;;;4.30;2.77;;;;;21.30;99239.00;;;;2071195;28;20244;-46
2022/04/06 03:35:23;;;;;;;5.47;2.60;;;;;21.30;99244.00;;;;2069520;28;20218;-46
2022/04/06 03:36:23;;;;;;;5.20;2.60;;;;;21.30;99239.00;;;;2070749;28;20241;-46
2022/04/06 03:37:24;;;;;;;5.10;2.50;;;;;21.30;99240.00;;;;2071093;28;20241;-46
2022/04/06 03:38:24;;;;;;;4.10;2.53;;;;;21.20;99238.00;;;;2071164;28;20218;-46
2022/04/06 03:39:25;;;;;;;2.73;2.27;;;;;21.20;99240.00;;;;2070604;28;20250;-46
2022/04/06 03:40:25;;;;;;;5.33;2.87;;;;;21.30;99246.00;;;;2073652;28;20229;-46
2022/04/06 03:41:25;;;;;;;4.43;2.37;;;;;21.30;99241.00;;;;2072062;28;20230;-46
2022/04/06 03:42:26;;;;;;;3.60;2.53;;;;;21.30;99241.00;;;;2071277;28;20206;-46
2022/04/06 03:43:26;;;;;;;4.97;2.37;;;;;21.20;99241.00;;;;2071014;28;20217;-46
2022/04/06 03:44:26;;;;;;;3.37;2.50;;;;;21.20;99240.00;;;;2071198;28;20233;-45
2022/04/06 03:45:27;;;;;;;4.40;2.17;;;;;21.20;99244.00;;;;2070009;28;20222;-46
2022/04/06 03:46:27;;;;;;;3.63;2.40;;;;;21.20;99243.00;;;;2070726;28;20950;-46
2022/04/06 03:47:29;;;;;;;2.90;2.13;;;;;21.20;99237.00;;;;2075151;28;20213;-46
2022/04/06 03:48:29;;;;;;;3.00;2.40;;;;;21.20;99246.00;;;;2078509;28;20210;-47
2022/04/06 03:49:29;;;;;;;3.70;2.30;;;;;21.20;99238.00;;;;2078926;28;20214;-47
2022/04/06 03:50:30;;;;;;;4.30;2.40;;;;;21.20;99247.00;;;;2070866;28;20272;-47
2022/04/06 03:51:30;;;;;;;5.13;3.07;;;;;21.20;99237.00;;;;2071115;28;20236;-47
2022/04/06 03:52:31;;;;;;;4.17;2.40;;;;;21.20;99232.00;;;;2070249;28;20211;-47
2022/04/06 03:53:31;;;;;;;3.33;2.20;;;;;21.20;99241.00;;;;2069240;28;20640;-47
2022/04/06 03:54:32;;;;;;;3.40;2.33;;;;;21.20;99224.00;;;;2070272;28;20215;-46
2022/04/06 03:55:32;;;;;;;4.80;2.53;;;;;21.20;99224.00;;;;2069882;28;20209;-47
2022/04/06 03:56:32;;;;;;;4.03;2.57;;;;;21.20;99229.00;;;;2071127;28;20276;-47
2022/04/06 03:57:36;;;;;;;4.40;2.47;;;;;21.20;99228.00;;;;2070810;28;20213;-47
2022/04/06 03:58:36;;;;;;;4.05;2.60;;;;;21.20;99240.00;;;;2070918;28;20210;-46
2022/04/06 03:59:37;;;;;;;4.43;2.80;;;;;21.20;99241.00;;;;2071096;28;20233;-46
2022/04/06 04:00:37;;;;;;;3.83;2.37;;;;;21.20;99248.00;;;;2071159;28;20210;-45
2022/04/06 04:01:37;;;;;;;3.90;2.40;;;;;21.20;99232.00;;;;2071007;28;20298;-45
2022/04/06 04:02:38;;;;;;;2.83;1.90;;;;;21.20;99243.00;;;;2070890;28;20262;-45
2022/04/06 04:03:38;;;;;;;3.80;2.63;;;;;21.00;99235.00;;;;2071008;28;20245;-45
2022/04/06 04:04:38;;;;;;;2.53;2.33;;;;;21.20;99233.00;;;;2070951;28;20218;-46
2022/04/06 04:05:39;;;;;;;2.87;1.90;;;;;21.20;99241.00;;;;2069917;28;20226;-46
2022/04/06 04:06:39;;;;;;;4.00;2.97;;;;;21.20;99233.00;;;;2074755;28;20209;-46
2022/04/06 04:07:39;;;;;;;2.90;2.00;;;;;21.20;99233.00;;;;2079077;28;20322;-46
2022/04/06 04:08:40;;;;;;;4.87;2.80;;;;;21.10;99231.00;;;;2077998;28;20218;-46
2022/04/06 04:09:40;;;;;;;5.40;2.43;;;;;21.10;99228.00;;;;2078735;28;20634;-46
2022/04/06 04:10:41;;;;;;;5.07;2.90;;;;;21.20;99224.00;;;;2071811;28;20206;-46
2022/04/06 04:11:42;;;;;;;4.30;2.80;;;;;21.10;99233.00;;;;2079081;28;20213;-47
2022/04/06 04:12:42;;;;;;;3.35;2.25;;;;;21.10;99230.00;;;;2079037;28;20217;-46
2022/04/06 04:13:43;;;;;;;4.20;2.80;;;;;21.10;99227.00;;;;2072591;28;20234;-46
2022/04/06 04:14:44;;;;;;;4.87;2.40;;;;;21.10;99223.00;;;;2070928;28;20736;-46
2022/04/06 04:15:44;;;;;;;2.30;2.10;;;;;21.10;99234.00;;;;2074293;28;20217;-46
2022/04/06 04:16:45;;;;;;;5.10;2.50;;;;;21.10;99224.00;;;;2078923;28;20957;-46
2022/04/06 04:17:45;;;;;;;4.60;2.67;;;;;21.10;99231.00;;;;2078847;28;20685;-46
2022/04/06 04:18:45;;;;;;;4.47;2.40;;;;;21.10;99223.00;;;;2078244;28;20779;-46
2022/04/06 04:19:46;;;;;;;4.13;3.00;;;;;21.10;99225.00;;;;2075935;28;20894;-46
2022/04/06 04:20:46;;;;;;;4.33;2.57;;;;;21.10;99223.00;;;;2079016;28;21026;-46
2022/04/06 04:21:46;;;;;;;3.87;2.17;;;;;21.10;99218.00;;;;2079138;28;20267;-46
2022/04/06 04:22:47;;;;;;;3.23;2.10;;;;;21.10;99223.00;;;;2079074;28;20243;-46
2022/04/06 04:23:48;;;;;;;2.97;2.30;;;;;21.10;99222.00;;;;2078827;28;20217;-45
2022/04/06 04:24:48;;;;;;;3.83;2.50;;;;;21.10;99221.00;;;;2077203;28;20495;-46
2022/04/06 04:25:48;;;;;;;4.37;2.57;;;;;21.10;99220.00;;;;2069882;28;20222;-46
2022/04/06 04:26:49;;;;;;;3.50;2.10;;;;;21.10;99214.00;;;;2070081;28;20210;-46
2022/04/06 04:27:49;;;;;;;5.77;3.33;;;;;21.10;99212.00;;;;2070136;28;20400;-46
2022/04/06 04:28:49;;;;;;;4.40;2.53;;;;;21.10;99214.00;;;;2071016;28;21150;-46
2022/04/06 04:29:50;;;;;;;4.77;2.30;;;;;21.10;99215.00;;;;2070929;28;20629;-46
2022/04/06 04:30:50;;;;;;;6.40;2.50;;;;;21.10;99212.00;;;;2069940;28;20268;-46
2022/04/06 04:31:50;;;;;;;4.07;2.47;;;;;21.10;99216.00;;;;2070248;28;20214;-46
2022/04/06 04:32:51;;;;;;;4.90;2.60;;;;;21.10;99219.00;;;;2078958;28;20249;-45
2022/04/06 04:33:51;;;;;;;4.60;2.50;;;;;21.10;99209.00;;;;2078889;28;20220;-45
2022/04/06 04:34:51;;;;;;;4.30;2.80;;;;;21.00;99219.00;;;;2078997;28;20220;-45
2022/04/06 04:35:52;;;;;;;4.73;2.60;;;;;21.10;99205.00;;;;2077550;28;20259;-46
2022/04/06 04:36:53;;;;;;;4.97;2.50;;;;;21.10;99216.00;;;;2078752;28;20210;-45
2022/04/06 04:37:53;;;;;;;3.67;2.70;;;;;21.10;99211.00;;;;2079117;28;20617;-45
2022/04/06 04:38:54;;;;;;;4.70;2.23;;;;;21.10;99206.00;;;;2078786;28;20299;-46
2022/04/06 04:39:54;;;;;;;5.73;2.50;;;;;21.10;99214.00;;;;2078962;28;20244;-45
2022/04/06 04:40:54;;;;;;;3.50;2.03;;;;;21.10;99208.00;;;;2078926;28;20248;-46
2022/04/06 04:41:55;;;;;;;4.00;2.20;;;;;21.10;99211.00;;;;2078780;28;20198;-46
2022/04/06 04:42:55;;;;;;;3.33;2.50;;;;;21.10;99209.00;;;;2078895;28;20217;-46
2022/04/06 04:43:56;;;;;;;4.80;2.40;;;;;21.00;99214.00;;;;2078974;28;20214;-46
2022/04/06 04:44:56;;;;;;;4.13;2.50;;;;;21.00;99200.00;;;;2078074;28;20568;-46
2022/04/06 04:45:56;;;;;;;3.80;2.70;;;;;21.00;99214.00;;;;2077472;28;20236;-45
2022/04/06 04:46:57;;;;;;;3.17;2.03;;;;;21.00;99206.00;;;;2078255;28;20260;-46
2022/04/06 04:47:58;;;;;;;4.10;2.33;;;;;21.00;99214.00;;;;2077531;28;20259;-46
2022/04/06 04:48:58;;;;;;;4.13;2.60;;;;;21.00;99208.00;;;;2077616;28;20449;-45
2022/04/06 04:49:59;;;;;;;3.87;2.40;;;;;21.00;99211.00;;;;2078488;28;20456;-46
2022/04/06 04:50:59;;;;;;;3.70;2.10;;;;;21.00;99218.00;;;;2078052;28;20220;-45
2022/04/06 04:52:00;;;;;;;4.30;2.20;;;;;21.00;99215.00;;;;2078369;28;20214;-45
2022/04/06 04:53:00;;;;;;;6.40;2.43;;;;;21.00;99211.00;;;;2077974;28;20267;-46
2022/04/06 04:54:00;;;;;;;3.77;3.00;;;;;21.00;99218.00;;;;2077899;28;20213;-45
2022/04/06 04:55:01;;;;;;;4.90;2.70;;;;;21.00;99210.00;;;;2078325;28;20596;-45
2022/04/06 04:56:01;;;;;;;2.73;2.07;;;;;21.00;99207.00;;;;2076995;28;20237;-46
2022/04/06 04:57:02;;;;;;;3.00;2.57;;;;;21.00;99210.00;;;;2078259;28;20213;-46
2022/04/06 04:58:03;;;;;;;5.05;2.10;;;;;21.00;99209.00;;;;2077714;28;20302;-45
2022/04/06 04:59:03;;;;;;;3.47;2.63;;;;;21.00;99207.00;;;;2078167;28;20681;-45
2022/04/06 05:00:06;;;;;;;4.20;2.50;;;;;21.00;99195.00;;;;2078089;28;20221;-46
2022/04/06 05:01:08;;;;;;;3.30;2.10;;;;;21.00;99202.00;;;;2078201;28;20262;-46
2022/04/06 05:02:08;;;;;;;3.40;2.13;;;;;21.00;99196.00;;;;2070066;28;20229;-46
2022/04/06 05:03:08;;;;;;;2.90;1.80;;;;;21.00;99201.00;;;;2069079;28;20272;-46
2022/04/06 05:04:09;;;;;;;3.60;2.37;;;;;21.00;99195.00;;;;2069791;28;20218;-46
2022/04/06 05:05:10;;;;;;;2.70;1.80;;;;;21.00;99190.00;;;;2069925;28;20217;-45
2022/04/06 05:06:10;;;;;;;4.50;2.13;;;;;21.00;99198.00;;;;2072977;28;20218;-49
2022/04/06 05:07:10;;;;;;;2.80;2.20;;;;;21.10;99198.00;;;;2076935;28;20984;-47